Time;durP1;ratioP1;P1;durP2;ratioP2;P2;SDS_P1;SDS_P2;PMS_P1;PMS_P2;Temp;Humidity;BMP_temperature;BMP_pressure;BME280_temperature;BME280_humidity;BME280_pressure;Samples;Min_cycle;Max_cycle;Signal;HPM_P1;HPM_P2
2021/12/23 00:01:53;;;;;;;13.50;12.07;;;22.20;40.70;;;;;;5035757;28;20186;-70
2021/12/23 00:04:18;;;;;;;12.48;11.20;;;22.30;41.00;;;;;;5051687;28;20210;-70
2021/12/23 00:06:44;;;;;;;12.88;11.57;;;22.30;41.50;;;;;;5052886;28;20285;-70
2021/12/23 00:09:11;;;;;;;12.55;11.15;;;22.20;40.80;;;;;;5018164;28;20190;-70
2021/12/23 00:11:37;;;;;;;13.18;11.82;;;22.30;40.90;;;;;;5052878;28;20187;-70
2021/12/23 00:14:06;;;;;;;12.20;10.68;;;22.20;40.80;;;;;;5034832;28;20190;-70
2021/12/23 00:16:44;;;;;;;12.77;11.38;;;22.20;40.80;;;;;;5051237;28;20226;-71
2021/12/23 00:19:22;;;;;;;11.95;10.75;;;22.20;40.70;;;;;;5034360;28;20182;-72
2021/12/23 00:24:33;;;;;;;11.60;10.40;;;22.20;40.80;;;;;;5034441;28;20217;-71
2021/12/23 00:26:59;;;;;;;12.20;10.95;;;22.20;40.80;;;;;;5018150;28;20199;-70
2021/12/23 00:29:25;;;;;;;11.48;10.27;;;22.30;40.90;;;;;;5033616;28;20187;-71
2021/12/23 00:31:51;;;;;;;11.30;10.13;;;22.30;40.80;;;;;;5018320;28;20213;-71
2021/12/23 00:34:17;;;;;;;11.43;10.23;;;22.30;40.90;;;;;;5034499;28;20236;-70
2021/12/23 00:36:45;;;;;;;11.85;10.65;;;22.20;40.60;;;;;;5034201;28;20274;-70
2021/12/23 00:39:12;;;;;;;11.27;10.07;;;22.20;40.60;;;;;;5033776;28;20281;-70
2021/12/23 00:41:40;;;;;;;11.63;10.45;;;22.20;40.70;;;;;;5034307;28;20190;-70
2021/12/23 00:44:06;;;;;;;11.32;10.23;;;22.20;40.70;;;;;;5050953;28;20225;-70
2021/12/23 00:46:32;;;;;;;11.13;9.98;;;22.20;40.50;;;;;;5017703;28;20210;-70
2021/12/23 00:48:58;;;;;;;11.23;10.02;;;22.20;40.70;;;;;;5049689;28;20170;-70
2021/12/23 00:51:23;;;;;;;12.98;10.95;;;22.20;40.50;;;;;;5034081;28;20182;-70
2021/12/23 00:53:52;;;;;;;11.10;10.00;;;22.20;40.60;;;;;;5050863;28;20247;-70
2021/12/23 00:56:18;;;;;;;11.63;9.60;;;22.20;40.40;;;;;;5017879;28;20195;-70
2021/12/23 00:58:44;;;;;;;10.45;9.35;;;22.20;40.60;;;;;;5051603;28;20225;-70
2021/12/23 01:01:10;;;;;;;10.60;9.50;;;22.20;40.70;;;;;;5033875;28;20210;-70
2021/12/23 01:03:36;;;;;;;10.63;9.52;;;22.20;40.60;;;;;;5034205;28;20202;-70
2021/12/23 01:06:03;;;;;;;11.18;9.98;;;22.20;40.60;;;;;;5047478;28;20598;-70
2021/12/23 01:08:30;;;;;;;12.35;9.52;;;22.20;41.20;;;;;;5016337;28;20170;-70
2021/12/23 01:10:58;;;;;;;9.45;8.45;;;22.20;40.60;;;;;;5033757;28;20540;-70
2021/12/23 01:13:27;;;;;;;10.32;9.15;;;22.20;40.60;;;;;;5033797;28;20273;-70
2021/12/23 01:16:06;;;;;;;10.05;9.05;;;22.20;40.70;;;;;;5033705;28;20186;-70
2021/12/23 01:18:53;;;;;;;10.25;9.20;;;22.20;40.60;;;;;;5033314;28;20186;-70
2021/12/23 01:21:19;;;;;;;10.35;9.30;;;22.20;40.50;;;;;;5050576;28;20273;-70
2021/12/23 01:23:52;;;;;;;11.10;10.00;;;22.20;40.50;;;;;;5017189;28;20661;-71
2021/12/23 01:26:22;;;;;;;11.60;10.45;;;22.20;40.40;;;;;;5051657;28;20179;-71
2021/12/23 01:28:58;;;;;;;11.27;9.77;;;22.20;40.40;;;;;;5033142;28;20186;-71
2021/12/23 01:31:29;;;;;;;9.80;8.90;;;22.10;40.40;;;;;;5017338;28;20636;-70
2021/12/23 01:33:55;;;;;;;9.88;8.98;;;22.10;40.40;;;;;;5050118;28;20644;-70
2021/12/23 01:36:25;;;;;;;9.80;8.88;;;22.20;40.50;;;;;;5032471;28;20215;-70
2021/12/23 01:38:52;;;;;;;9.50;8.63;;;22.20;40.50;;;;;;5049451;28;20218;-70
2021/12/23 01:41:19;;;;;;;10.05;9.05;;;22.20;40.50;;;;;;5033533;28;20191;-70
2021/12/23 01:43:45;;;;;;;9.70;8.70;;;22.20;40.50;;;;;;5033465;28;20221;-70
2021/12/23 01:46:10;;;;;;;9.80;8.80;;;22.20;40.50;;;;;;5033604;28;20186;-70
2021/12/23 01:48:36;;;;;;;10.40;9.00;;;22.20;41.10;;;;;;5049651;28;20670;-70
2021/12/23 01:51:03;;;;;;;9.15;8.25;;;22.20;40.50;;;;;;5033517;28;20186;-70
2021/12/23 01:53:29;;;;;;;9.07;8.23;;;22.20;40.50;;;;;;5033413;28;20183;-70
2021/12/23 01:55:55;;;;;;;8.93;8.05;;;22.20;40.50;;;;;;5033409;28;20205;-70
2021/12/23 01:58:21;;;;;;;9.73;8.82;;;22.20;40.40;;;;;;5033222;28;20210;-70
2021/12/23 02:00:51;;;;;;;9.48;8.55;;;22.20;40.30;;;;;;5052526;28;20221;-70
2021/12/23 02:03:18;;;;;;;9.20;8.30;;;22.20;40.40;;;;;;5055118;28;20202;-70
2021/12/23 02:05:45;;;;;;;9.63;8.73;;;22.20;40.20;;;;;;5037249;28;20240;-70
2021/12/23 02:08:11;;;;;;;9.20;8.30;;;22.20;40.20;;;;;;5033665;28;20195;-70
2021/12/23 02:10:40;;;;;;;9.23;8.32;;;22.20;40.30;;;;;;5053671;28;20632;-70
2021/12/23 02:13:06;;;;;;;9.38;8.48;;;22.10;40.30;;;;;;5053793;28;20244;-70
2021/12/23 02:15:32;;;;;;;9.88;8.88;;;22.20;40.40;;;;;;5053845;28;20198;-70
2021/12/23 02:17:58;;;;;;;9.05;8.15;;;22.20;40.20;;;;;;5069930;28;20206;-70
2021/12/23 02:20:34;;;;;;;8.55;7.50;;;22.20;40.40;;;;;;5053753;28;20190;-70
2021/12/23 02:23:01;;;;;;;8.52;7.72;;;22.20;40.40;;;;;;5041082;28;20182;-70
2021/12/23 02:25:28;;;;;;;8.88;7.97;;;22.10;40.40;;;;;;5054681;28;20187;-70
2021/12/23 02:27:55;;;;;;;8.40;7.60;;;22.20;40.40;;;;;;5036427;28;20286;-70
2021/12/23 02:30:26;;;;;;;8.07;7.38;;;22.20;40.50;;;;;;5054611;28;20182;-71
2021/12/23 02:32:53;;;;;;;8.25;7.55;;;22.20;40.40;;;;;;5020467;28;20182;-70
2021/12/23 02:35:23;;;;;;;7.40;6.70;;;22.20;40.50;;;;;;5054513;28;20224;-70
2021/12/23 02:37:49;;;;;;;7.85;7.15;;;22.20;40.40;;;;;;5053870;28;20238;-70
2021/12/23 02:40:32;;;;;;;8.10;7.30;;;22.20;40.50;;;;;;5053147;28;20611;-70
2021/12/23 02:43:17;;;;;;;8.30;7.50;;;22.20;40.30;;;;;;5054401;28;20281;-70
2021/12/23 02:45:45;;;;;;;8.40;7.60;;;22.20;40.20;;;;;;5053260;28;20175;-70
2021/12/23 02:48:19;;;;;;;8.27;7.47;;;22.20;40.30;;;;;;5052834;28;20684;-70
2021/12/23 02:50:49;;;;;;;8.23;7.43;;;22.20;40.10;;;;;;5069965;28;20205;-70
2021/12/23 02:53:16;;;;;;;7.75;7.05;;;22.20;40.30;;;;;;5069612;28;20194;-70
2021/12/23 02:55:43;;;;;;;6.82;6.22;;;22.20;40.40;;;;;;5069680;28;20186;-70
2021/12/23 02:58:09;;;;;;;8.50;7.72;;;22.20;40.40;;;;;;5053722;28;20209;-70
2021/12/23 03:00:38;;;;;;;7.85;7.15;;;22.20;40.40;;;;;;5069564;28;20190;-70
2021/12/23 03:03:04;;;;;;;8.02;7.22;;;22.20;40.40;;;;;;5035986;28;20210;-70
2021/12/23 03:05:30;;;;;;;7.90;7.20;;;22.20;40.50;;;;;;5036279;28;20209;-70
2021/12/23 03:07:58;;;;;;;8.23;7.43;;;22.30;40.60;;;;;;5035515;28;20707;-70
2021/12/23 03:10:24;;;;;;;7.78;7.07;;;22.20;40.50;;;;;;5053777;28;20190;-71
2021/12/23 03:12:51;;;;;;;7.55;6.85;;;22.20;40.40;;;;;;5019068;28;20244;-71
2021/12/23 03:15:17;;;;;;;7.20;6.50;;;22.20;40.50;;;;;;5035807;28;20230;-70
2021/12/23 03:17:43;;;;;;;6.75;6.15;;;22.20;40.50;;;;;;5036564;28;20206;-70
2021/12/23 03:20:10;;;;;;;7.97;7.20;;;22.20;40.40;;;;;;5069181;28;20196;-70
2021/12/23 03:22:36;;;;;;;7.65;6.95;;;22.20;40.40;;;;;;5052434;28;20574;-70
2021/12/23 03:25:02;;;;;;;7.72;6.80;;;22.20;40.30;;;;;;5052459;28;20210;-70
2021/12/23 03:27:28;;;;;;;8.07;7.35;;;22.20;40.40;;;;;;5052281;28;20211;-70
2021/12/23 03:29:56;;;;;;;7.93;7.22;;;22.20;40.40;;;;;;5040533;28;20178;-70
2021/12/23 03:32:24;;;;;;;8.60;7.80;;;22.20;40.40;;;;;;5035306;28;20260;-70
2021/12/23 03:34:50;;;;;;;7.68;6.97;;;22.20;40.20;;;;;;5052142;28;20182;-70
2021/12/23 03:37:16;;;;;;;7.60;6.90;;;22.20;40.30;;;;;;5032315;28;20221;-70
2021/12/23 03:39:42;;;;;;;7.60;6.85;;;22.20;40.10;;;;;;5041497;28;20190;-70
2021/12/23 03:42:08;;;;;;;7.25;6.63;;;22.20;40.30;;;;;;5010381;28;20650;-70
2021/12/23 03:44:34;;;;;;;6.90;6.30;;;22.10;40.20;;;;;;5042900;28;20761;-70
2021/12/23 03:47:00;;;;;;;7.40;6.70;;;22.20;40.40;;;;;;5052049;28;20206;-70
2021/12/23 03:49:26;;;;;;;7.60;6.90;;;22.20;40.40;;;;;;5052959;28;20551;-70
2021/12/23 03:51:52;;;;;;;7.35;6.65;;;22.20;41.00;;;;;;5051752;28;20189;-70
2021/12/23 03:54:17;;;;;;;7.30;6.60;;;22.20;40.40;;;;;;5052121;28;20609;-70
2021/12/23 03:56:44;;;;;;;6.75;6.05;;;22.20;40.30;;;;;;5035167;28;20226;-70
2021/12/23 03:59:10;;;;;;;6.57;6.00;;;22.20;41.00;;;;;;5034733;28;20244;-70
2021/12/23 04:01:35;;;;;;;7.38;6.68;;;22.30;40.50;;;;;;5051483;28;20187;-70
2021/12/23 04:04:02;;;;;;;7.03;6.43;;;22.20;40.40;;;;;;5018664;28;20206;-70
2021/12/23 04:06:28;;;;;;;7.53;6.82;;;22.20;40.40;;;;;;5051530;28;20268;-70
2021/12/23 04:08:54;;;;;;;7.15;6.45;;;22.20;40.50;;;;;;5018197;28;20186;-70
2021/12/23 04:11:21;;;;;;;6.93;6.32;;;22.20;40.40;;;;;;5035012;28;20210;-70
2021/12/23 04:13:47;;;;;;;6.75;6.15;;;22.20;40.40;;;;;;5051650;28;20242;-70
2021/12/23 04:16:13;;;;;;;7.07;6.38;;;22.30;40.40;;;;;;5034815;28;20218;-70
2021/12/23 04:18:39;;;;;;;7.10;6.40;;;22.20;40.20;;;;;;5030747;28;20191;-71
2021/12/23 04:21:05;;;;;;;7.50;6.80;;;22.20;40.20;;;;;;5031295;28;20269;-70
2021/12/23 04:23:32;;;;;;;7.30;6.60;;;22.20;40.20;;;;;;5049710;28;20218;-70
2021/12/23 04:25:59;;;;;;;7.82;7.13;;;22.20;40.20;;;;;;5018343;28;20278;-70
2021/12/23 04:28:26;;;;;;;7.63;6.93;;;22.20;40.10;;;;;;5017887;28;20187;-70
2021/12/23 04:30:53;;;;;;;8.07;7.28;;;22.20;40.30;;;;;;5052495;28;20186;-70
2021/12/23 04:33:19;;;;;;;7.80;7.10;;;22.20;40.20;;;;;;5018394;28;20193;-69
2021/12/23 04:35:45;;;;;;;8.43;7.63;;;22.20;40.10;;;;;;5034541;28;20191;-70
2021/12/23 04:38:11;;;;;;;7.68;6.97;;;22.10;40.20;;;;;;5034048;28;20210;-70
2021/12/23 04:40:37;;;;;;;7.10;6.40;;;22.10;40.00;;;;;;5034898;28;20186;-69
2021/12/23 04:43:08;;;;;;;7.32;6.65;;;22.10;40.20;;;;;;5034383;28;20191;-69
2021/12/23 04:45:34;;;;;;;7.38;6.68;;;22.20;40.20;;;;;;5017957;28;20217;-70
2021/12/23 04:48:01;;;;;;;7.70;7.00;;;22.20;40.30;;;;;;5030688;28;20708;-70
2021/12/23 04:50:26;;;;;;;7.13;6.50;;;22.20;40.30;;;;;;5033711;28;20197;-70
2021/12/23 04:52:52;;;;;;;7.20;6.60;;;22.10;40.20;;;;;;5034345;28;20182;-70
2021/12/23 04:55:19;;;;;;;7.13;6.53;;;22.20;40.20;;;;;;5034163;28;20644;-70
2021/12/23 04:57:45;;;;;;;7.18;6.47;;;22.20;40.20;;;;;;5033536;28;20260;-70
2021/12/23 05:00:19;;;;;;;7.20;6.60;;;22.20;40.30;;;;;;5034329;28;20225;-70
2021/12/23 05:02:46;;;;;;;6.72;6.13;;;22.10;40.20;;;;;;5051340;28;20644;-70
2021/12/23 05:05:14;;;;;;;7.35;6.65;;;22.20;40.30;;;;;;5051660;28;20276;-70
2021/12/23 05:07:40;;;;;;;7.90;7.20;;;22.10;40.10;;;;;;5051661;28;20206;-70
2021/12/23 05:10:09;;;;;;;7.45;6.75;;;22.10;40.00;;;;;;5034038;28;20206;-70
2021/12/23 05:12:41;;;;;;;7.60;6.90;;;22.20;40.20;;;;;;5051839;28;20189;-70
2021/12/23 05:15:14;;;;;;;8.23;7.53;;;22.20;40.10;;;;;;5059989;22;20238;-72
2021/12/23 05:17:41;;;;;;;7.60;6.90;;;22.10;40.10;;;;;;5050677;28;20182;-72
2021/12/23 05:20:10;;;;;;;7.15;6.55;;;22.10;40.00;;;;;;5052589;28;20192;-71
2021/12/23 05:22:36;;;;;;;7.40;6.70;;;22.10;40.00;;;;;;5035077;28;20179;-72
2021/12/23 05:25:05;;;;;;;6.82;6.22;;;22.20;40.10;;;;;;5034626;28;20264;-72
2021/12/23 05:27:30;;;;;;;7.22;6.53;;;22.20;40.20;;;;;;5052139;28;20162;-72
2021/12/23 05:29:56;;;;;;;7.15;6.45;;;22.10;40.00;;;;;;5051380;28;20258;-71
2021/12/23 05:32:23;;;;;;;6.82;6.22;;;22.10;40.10;;;;;;5051328;28;20174;-72
2021/12/23 05:34:49;;;;;;;7.10;6.50;;;22.20;40.20;;;;;;5050775;28;20234;-72
2021/12/23 05:37:15;;;;;;;6.70;6.10;;;22.10;40.10;;;;;;5051154;28;20217;-71
2021/12/23 05:39:41;;;;;;;6.90;6.30;;;22.20;40.20;;;;;;5034274;28;20190;-71
2021/12/23 05:42:07;;;;;;;7.10;6.47;;;22.10;40.10;;;;;;5034351;28;20186;-71
2021/12/23 05:44:33;;;;;;;7.75;7.00;;;22.10;40.10;;;;;;5050869;28;20585;-72
2021/12/23 05:46:59;;;;;;;6.90;6.30;;;22.20;40.20;;;;;;5034129;28;20187;-72
2021/12/23 05:49:24;;;;;;;6.78;6.18;;;22.10;40.20;;;;;;5034436;28;20182;-72
2021/12/23 05:51:50;;;;;;;6.65;6.05;;;22.20;40.20;;;;;;5050797;28;20183;-71
2021/12/23 05:54:16;;;;;;;7.07;6.38;;;22.20;40.20;;;;;;5034449;28;20202;-71
2021/12/23 05:56:42;;;;;;;6.65;6.05;;;22.20;40.10;;;;;;5034487;28;20185;-72
2021/12/23 05:59:07;;;;;;;7.13;6.45;;;22.10;40.00;;;;;;5033928;28;20685;-69
2021/12/23 06:01:33;;;;;;;7.40;6.80;;;22.10;40.00;;;;;;5034279;28;20178;-72
2021/12/23 06:03:59;;;;;;;8.25;7.45;;;22.10;40.00;;;;;;5034021;28;20221;-72
2021/12/23 06:06:25;;;;;;;7.78;7.07;;;22.20;40.10;;;;;;5034052;28;20189;-72
2021/12/23 06:08:50;;;;;;;8.18;7.38;;;22.20;40.10;;;;;;5050421;28;20187;-72
2021/12/23 06:11:16;;;;;;;8.65;7.90;;;22.10;40.00;;;;;;5050654;28;20181;-72
2021/12/23 06:13:42;;;;;;;10.13;9.15;;;22.20;40.10;;;;;;5050738;28;20246;-71
2021/12/23 06:16:09;;;;;;;7.90;7.20;;;22.20;39.80;;;;;;5050154;28;20222;-71
2021/12/23 06:18:35;;;;;;;8.20;7.40;;;22.10;39.70;;;;;;5050472;28;20183;-71
2021/12/23 06:21:00;;;;;;;7.72;7.03;;;22.10;40.00;;;;;;5033980;28;20187;-72
2021/12/23 06:23:26;;;;;;;8.18;7.38;;;22.10;39.80;;;;;;5050487;28;20464;-72
2021/12/23 06:25:53;;;;;;;8.23;7.43;;;22.20;40.00;;;;;;5050497;28;20210;-72
2021/12/23 06:28:19;;;;;;;8.88;8.07;;;22.10;40.00;;;;;;5033827;28;20189;-71
2021/12/23 06:30:45;;;;;;;8.57;7.78;;;22.10;40.00;;;;;;5033788;28;20175;-72
2021/12/23 06:33:12;;;;;;;9.30;8.48;;;22.10;40.00;;;;;;5050527;28;20266;-72
2021/12/23 06:35:39;;;;;;;9.25;8.35;;;22.10;40.00;;;;;;5051742;28;20210;-72
2021/12/23 06:38:09;;;;;;;8.93;8.13;;;22.20;40.10;;;;;;5032523;28;20184;-73
2021/12/23 06:40:36;;;;;;;9.88;9.00;;;22.10;40.00;;;;;;5033940;28;20258;-71
2021/12/23 06:43:02;;;;;;;9.15;8.35;;;22.10;40.00;;;;;;5050607;28;20185;-71
2021/12/23 06:45:28;;;;;;;9.35;8.45;;;22.10;40.00;;;;;;5050132;28;20198;-71
2021/12/23 06:47:54;;;;;;;9.27;8.38;;;22.10;40.00;;;;;;5035949;28;20281;-72
2021/12/23 06:50:21;;;;;;;9.25;8.38;;;22.10;40.00;;;;;;5037145;28;20189;-72
2021/12/23 06:52:49;;;;;;;9.07;8.20;;;22.10;40.00;;;;;;5054474;28;20187;-71
2021/12/23 06:55:17;;;;;;;9.98;9.07;;;22.10;39.90;;;;;;5037460;28;20241;-72
2021/12/23 06:57:43;;;;;;;9.80;8.80;;;22.20;40.00;;;;;;5053797;28;20187;-71
2021/12/23 07:00:14;;;;;;;9.75;8.85;;;22.10;39.80;;;;;;5053684;28;20185;-72
2021/12/23 07:02:42;;;;;;;10.07;9.10;;;22.10;39.70;;;;;;5054914;28;20179;-71
2021/12/23 07:05:09;;;;;;;10.18;9.18;;;22.10;39.80;;;;;;5033054;28;20211;-72
2021/12/23 07:08:12;;;;;;;10.00;9.10;;;22.10;39.60;;;;;;5017095;28;20207;-71
2021/12/23 07:10:30;;;;;;;9.98;9.07;;;22.20;39.90;;;;;;5033783;28;20199;-71
2021/12/23 07:12:57;;;;;;;9.60;8.73;;;22.20;40.00;;;;;;5034029;28;20183;-71
2021/12/23 07:15:24;;;;;;;9.20;8.40;;;22.10;39.90;;;;;;5044110;28;20210;-71
2021/12/23 07:17:53;;;;;;;9.57;8.68;;;22.10;40.00;;;;;;5054593;28;20205;-71
2021/12/23 07:20:21;;;;;;;9.13;8.32;;;22.10;39.90;;;;;;5037170;28;20189;-71
2021/12/23 07:22:47;;;;;;;10.18;9.23;;;22.10;39.90;;;;;;5053519;28;20182;-71
2021/12/23 07:25:13;;;;;;;9.23;8.35;;;22.10;39.90;;;;;;5053497;28;20218;-71
2021/12/23 07:27:40;;;;;;;9.43;8.63;;;22.10;40.50;;;;;;5053197;28;20179;-71
2021/12/23 07:30:08;;;;;;;10.80;9.80;;;22.20;39.90;;;;;;5036396;28;20195;-71
2021/12/23 07:32:34;;;;;;;10.23;9.32;;;22.20;39.80;;;;;;5036505;28;20187;-71
2021/12/23 07:35:00;;;;;;;11.10;10.10;;;22.10;39.70;;;;;;5053042;28;20205;-71
2021/12/23 07:37:26;;;;;;;10.05;9.15;;;22.20;39.80;;;;;;5036092;28;20236;-71
2021/12/23 07:39:54;;;;;;;9.65;8.75;;;22.20;39.90;;;;;;5053253;28;20182;-71
2021/12/23 07:42:20;;;;;;;11.23;10.13;;;22.10;39.80;;;;;;5036368;28;20218;-71
2021/12/23 07:44:46;;;;;;;12.25;11.10;;;22.10;39.60;;;;;;5052743;28;20268;-71
2021/12/23 07:47:14;;;;;;;10.68;9.68;;;22.10;39.80;;;;;;5052891;28;20182;-71
2021/12/23 07:49:41;;;;;;;10.70;9.65;;;22.10;39.70;;;;;;5036104;28;20193;-71
2021/12/23 07:52:08;;;;;;;11.27;10.27;;;22.10;39.70;;;;;;5036235;28;20195;-71
2021/12/23 07:54:35;;;;;;;11.07;9.98;;;22.10;39.70;;;;;;5052768;28;20310;-73
2021/12/23 07:57:02;;;;;;;10.95;9.95;;;22.10;39.80;;;;;;5054390;28;20236;-70
2021/12/23 07:59:28;;;;;;;11.43;10.32;;;22.10;39.80;;;;;;5049607;28;20265;-70
2021/12/23 08:01:58;;;;;;;12.15;10.95;;;22.10;39.90;;;;;;5049174;28;20234;-71
2021/12/23 08:04:25;;;;;;;12.48;11.27;;;22.20;40.00;;;;;;5052398;28;20218;-71
2021/12/23 08:06:57;;;;;;;13.10;11.80;;;22.20;40.00;;;;;;5054713;28;20229;-72
2021/12/23 08:09:25;;;;;;;12.65;11.45;;;22.10;39.90;;;;;;5052655;28;20582;-71
2021/12/23 08:11:51;;;;;;;13.45;12.05;;;22.10;39.90;;;;;;5053323;28;20182;-71
2021/12/23 08:14:17;;;;;;;12.82;11.52;;;22.20;40.00;;;;;;5038664;28;20301;-71
2021/12/23 08:16:43;;;;;;;13.30;11.98;;;22.20;40.00;;;;;;5039534;28;20267;-71
2021/12/23 08:19:10;;;;;;;13.25;11.85;;;22.20;40.00;;;;;;5039599;28;20182;-71
2021/12/23 08:21:36;;;;;;;13.30;12.00;;;22.20;39.90;;;;;;5056120;28;20178;-72
2021/12/23 08:24:02;;;;;;;13.15;11.77;;;22.20;39.80;;;;;;5037068;28;20220;-73
2021/12/23 08:26:29;;;;;;;13.68;11.77;;;22.20;39.80;;;;;;5064914;28;20665;-73
2021/12/23 08:28:56;;;;;;;13.13;11.82;;;22.20;39.90;;;;;;5072211;28;20182;-73
2021/12/23 08:31:23;;;;;;;12.88;11.68;;;22.20;39.80;;;;;;5074112;28;20535;-74
2021/12/23 08:33:50;;;;;;;13.73;12.38;;;22.20;40.40;;;;;;5073497;28;20270;-71
2021/12/23 08:36:16;;;;;;;12.77;11.57;;;22.20;39.80;;;;;;5055918;28;20197;-73
2021/12/23 08:38:43;;;;;;;13.35;12.05;;;22.20;39.80;;;;;;5073705;28;20642;-73
2021/12/23 08:41:09;;;;;;;12.63;11.43;;;22.20;40.00;;;;;;5055773;28;20186;-73
2021/12/23 08:43:36;;;;;;;12.93;11.70;;;22.20;39.80;;;;;;5071518;28;20285;-73
2021/12/23 08:46:03;;;;;;;13.63;12.23;;;22.20;39.90;;;;;;5051411;28;20201;-74
2021/12/23 08:48:29;;;;;;;12.70;11.40;;;22.20;39.90;;;;;;5054751;28;20541;-73
2021/12/23 08:50:55;;;;;;;12.50;11.32;;;22.20;40.00;;;;;;5055213;28;20247;-73
2021/12/23 08:53:21;;;;;;;12.27;11.05;;;22.30;40.10;;;;;;5071662;28;20675;-73
2021/12/23 08:55:47;;;;;;;12.98;11.77;;;22.20;40.00;;;;;;5052196;28;20308;-73
2021/12/23 08:58:14;;;;;;;13.50;12.30;;;22.20;40.00;;;;;;5038010;28;20193;-73
2021/12/23 09:00:41;;;;;;;12.98;11.77;;;22.20;40.00;;;;;;5055256;28;20190;-73
2021/12/23 09:03:09;;;;;;;13.18;11.98;;;22.30;40.20;;;;;;5038449;28;20663;-73
2021/12/23 09:05:38;;;;;;;12.57;11.32;;;22.20;40.10;;;;;;5038558;28;20202;-73
2021/12/23 09:08:05;;;;;;;12.45;11.25;;;22.30;40.20;;;;;;5051315;28;20189;-73
2021/12/23 09:10:33;;;;;;;11.93;10.75;;;22.30;40.10;;;;;;5034415;28;20174;-73
2021/12/23 09:13:00;;;;;;;12.85;11.65;;;22.30;40.10;;;;;;5035234;28;20186;-73
2021/12/23 09:15:25;;;;;;;12.52;11.32;;;22.30;40.10;;;;;;5054336;28;20693;-73
2021/12/23 09:17:51;;;;;;;12.05;10.95;;;22.30;40.20;;;;;;5071311;28;20181;-73
2021/12/23 09:20:21;;;;;;;12.05;10.95;;;22.30;40.20;;;;;;5072604;28;20189;-73
2021/12/23 09:22:49;;;;;;;10.98;9.98;;;22.30;40.20;;;;;;5054851;28;20181;-72
2021/12/23 09:25:31;;;;;;;12.02;10.93;;;22.30;40.20;;;;;;5054277;28;20245;-74
2021/12/23 09:33:16;;;;;;;11.20;10.13;;;22.30;40.20;;;;;;5054180;28;20184;-73
2021/12/23 09:35:43;;;;;;;11.13;10.10;;;22.30;40.20;;;;;;5054477;28;20197;-73
2021/12/23 09:38:10;;;;;;;11.80;10.60;;;22.30;40.20;;;;;;5054357;28;20205;-74
2021/12/23 09:40:38;;;;;;;10.40;9.45;;;22.40;40.30;;;;;;5037756;28;20189;-73
2021/12/23 09:43:08;;;;;;;10.93;9.82;;;22.40;40.30;;;;;;5037914;28;20180;-73
2021/12/23 09:45:40;;;;;;;10.20;9.20;;;22.40;40.30;;;;;;5037278;28;20205;-74
2021/12/23 09:48:07;;;;;;;9.98;9.07;;;22.40;40.30;;;;;;5050703;28;20270;-73
2021/12/23 09:50:39;;;;;;;9.48;8.60;;;22.40;40.30;;;;;;5034417;28;20693;-73
2021/12/23 09:53:07;;;;;;;9.95;9.02;;;22.40;40.30;;;;;;5034344;28;20225;-72
2021/12/23 09:55:37;;;;;;;9.70;8.73;;;22.40;40.40;;;;;;5034230;28;20217;-73
2021/12/23 09:58:06;;;;;;;9.82;8.82;;;22.40;40.40;;;;;;5033972;28;20182;-74
2021/12/23 10:00:37;;;;;;;8.98;8.18;;;22.30;40.30;;;;;;5033927;28;20179;-74
2021/12/23 10:03:03;;;;;;;10.65;9.23;;;22.30;40.40;;;;;;5034121;28;20173;-73
2021/12/23 10:05:33;;;;;;;8.68;7.88;;;22.40;40.50;;;;;;5033927;28;20226;-74
2021/12/23 10:08:01;;;;;;;8.27;7.53;;;22.40;40.50;;;;;;5033863;28;20220;-74
2021/12/23 10:10:34;;;;;;;8.02;7.32;;;22.40;40.50;;;;;;5034283;28;20174;-73
2021/12/23 10:38:26;;;;;;;7.60;6.95;;;22.50;40.70;;;;;;5055266;28;20174;-70
2021/12/23 10:40:59;;;;;;;7.63;7.00;;;22.50;40.70;;;;;;5057611;28;20280;-73
2021/12/23 10:43:33;;;;;;;7.38;6.68;;;22.50;40.70;;;;;;5074422;28;20209;-72
2021/12/23 10:46:11;;;;;;;7.57;6.88;;;22.50;40.70;;;;;;5040323;28;20299;-72
2021/12/23 10:52:10;;;;;;;6.53;5.93;;;22.50;40.70;;;;;;5055268;28;20185;-72
2021/12/23 11:00:27;;;;;;;6.82;6.20;;;22.50;40.80;;;;;;5074464;28;20238;-72
2021/12/23 11:03:15;;;;;;;6.80;6.20;;;22.50;40.80;;;;;;5038986;28;20185;-72
2021/12/23 11:06:13;;;;;;;6.45;5.85;;;22.50;40.80;;;;;;5053077;28;20222;-72
2021/12/23 11:11:43;;;;;;;6.85;6.13;;;22.50;40.90;;;;;;5062981;28;20189;-72
2021/12/23 11:29:14;;;;;;;5.63;5.13;;;22.50;41.00;;;;;;5094744;28;20232;-69
2021/12/23 11:41:51;;;;;;;5.88;5.38;;;22.50;41.00;;;;;;5076256;28;20284;-71
2021/12/23 11:44:17;;;;;;;6.07;5.47;;;22.50;41.00;;;;;;5076392;28;20240;-71
2021/12/23 11:46:52;;;;;;;5.75;5.25;;;22.50;41.00;;;;;;5093040;28;20225;-71
2021/12/23 11:49:18;;;;;;;5.57;5.07;;;22.60;41.10;;;;;;5093105;28;20176;-70
2021/12/23 11:54:34;;;;;;;6.18;5.57;;;22.60;41.20;;;;;;5076095;28;20398;-69
2021/12/23 11:57:16;;;;;;;5.72;5.22;;;22.60;41.20;;;;;;5060932;28;20205;-70
2021/12/23 12:02:36;;;;;;;6.18;5.65;;;22.50;41.10;;;;;;5053958;28;20190;-70
2021/12/23 12:05:12;;;;;;;5.95;5.35;;;22.60;41.30;;;;;;5053338;28;20255;-70
2021/12/23 12:07:41;;;;;;;6.25;5.75;;;22.50;41.20;;;;;;5035760;28;20175;-71
2021/12/23 12:10:12;;;;;;;5.95;5.45;;;22.50;41.20;;;;;;5026810;28;20185;-70
2021/12/23 12:13:07;;;;;;;5.60;5.10;;;22.50;41.20;;;;;;5055823;28;20261;-69
2021/12/23 12:15:37;;;;;;;6.85;5.30;;;22.60;41.20;;;;;;5053268;28;20692;-71
2021/12/23 12:18:12;;;;;;;5.85;5.35;;;22.60;41.30;;;;;;5073287;28;20189;-70
2021/12/23 12:20:48;;;;;;;6.28;5.68;;;22.50;41.20;;;;;;5072335;28;20177;-70
2021/12/23 12:23:33;;;;;;;5.35;4.85;;;22.60;41.20;;;;;;5072141;28;20649;-70
2021/12/23 12:26:08;;;;;;;5.78;5.28;;;22.50;41.20;;;;;;5069491;28;20213;-68
2021/12/23 12:28:41;;;;;;;5.90;5.38;;;22.50;41.20;;;;;;5089141;28;20173;-70
2021/12/23 12:31:20;;;;;;;5.63;5.13;;;22.60;41.30;;;;;;5072076;28;20166;-70
2021/12/23 12:34:06;;;;;;;5.47;4.97;;;22.60;41.30;;;;;;5071885;28;20216;-69
2021/12/23 12:36:39;;;;;;;5.53;5.03;;;22.60;41.30;;;;;;5055264;28;20205;-69
2021/12/23 12:39:08;;;;;;;5.38;4.88;;;22.60;41.30;;;;;;5071911;28;20174;-70
2021/12/23 12:41:37;;;;;;;5.55;5.03;;;22.60;41.30;;;;;;5071798;28;20189;-69
2021/12/23 12:46:53;;;;;;;5.40;4.90;;;22.60;41.40;;;;;;5071479;28;20213;-70
2021/12/23 12:49:28;;;;;;;5.30;4.80;;;22.60;41.30;;;;;;5071582;28;20177;-69
2021/12/23 12:52:07;;;;;;;5.05;4.65;;;22.60;41.40;;;;;;5072978;28;20176;-69
2021/12/23 12:54:40;;;;;;;6.63;4.50;;;22.60;41.40;;;;;;5054831;28;20186;-70
2021/12/23 12:57:08;;;;;;;5.03;4.60;;;22.60;42.30;;;;;;5071696;28;20217;-71
2021/12/23 12:59:42;;;;;;;5.85;4.88;;;22.60;42.10;;;;;;5071514;28;20181;-71
2021/12/23 13:02:31;;;;;;;5.45;4.95;;;22.60;42.00;;;;;;5071384;28;20276;-69
2021/12/23 13:05:10;;;;;;;5.40;4.90;;;22.60;42.00;;;;;;5071259;28;20295;-69
2021/12/23 13:08:05;;;;;;;5.45;4.40;;;22.60;42.10;;;;;;5081914;28;20238;-69
2021/12/23 13:10:46;;;;;;;4.97;4.47;;;22.60;42.80;;;;;;5075121;28;20260;-69
2021/12/23 13:13:36;;;;;;;5.03;4.63;;;22.60;42.60;;;;;;5074988;28;20176;-69
2021/12/23 13:16:25;;;;;;;5.63;5.13;;;22.60;42.50;;;;;;5092070;28;20209;-69
2021/12/23 13:19:21;;;;;;;5.28;4.78;;;22.60;42.50;;;;;;5074442;28;20192;-70
2021/12/23 13:21:57;;;;;;;5.10;4.63;;;22.60;42.50;;;;;;5091219;28;20180;-69
2021/12/23 13:24:27;;;;;;;4.80;4.30;;;22.60;42.50;;;;;;5092111;28;20651;-70
2021/12/23 13:26:56;;;;;;;4.78;4.38;;;22.60;42.50;;;;;;5074042;28;20287;-70
2021/12/23 13:29:27;;;;;;;5.45;5.00;;;22.60;42.50;;;;;;5057161;28;20217;-69
2021/12/23 13:31:56;;;;;;;6.18;5.68;;;22.60;42.50;;;;;;5074743;28;20165;-69
2021/12/23 13:34:26;;;;;;;6.25;5.68;;;22.60;42.50;;;;;;5092399;28;20200;-70
2021/12/23 13:36:58;;;;;;;6.65;5.95;;;22.60;42.50;;;;;;5091240;28;20201;-69
2021/12/23 13:39:31;;;;;;;6.53;5.93;;;22.60;42.40;;;;;;5090826;28;20217;-69
2021/12/23 13:41:59;;;;;;;5.97;5.47;;;22.60;42.40;;;;;;5091417;28;20177;-69
2021/12/23 13:44:28;;;;;;;5.88;5.35;;;22.60;42.30;;;;;;5074533;28;20204;-69
2021/12/23 13:47:12;;;;;;;6.13;5.57;;;22.60;42.40;;;;;;5057379;28;20208;-69
2021/12/23 13:49:47;;;;;;;6.30;5.70;;;22.60;42.20;;;;;;5047780;28;20276;-70
2021/12/23 13:52:27;;;;;;;6.35;5.78;;;22.60;42.20;;;;;;5092233;28;20259;-70
2021/12/23 13:55:00;;;;;;;6.13;5.63;;;22.60;42.10;;;;;;5055748;28;20205;-70
2021/12/23 13:57:31;;;;;;;5.80;5.30;;;22.60;42.10;;;;;;5077019;28;20209;-68
2021/12/23 13:59:57;;;;;;;6.13;5.53;;;22.60;42.00;;;;;;5096236;28;20212;-69
2021/12/23 14:02:26;;;;;;;6.20;5.60;;;22.60;42.00;;;;;;5078155;28;20177;-69
2021/12/23 14:05:02;;;;;;;5.50;5.00;;;22.60;41.90;;;;;;5078075;28;20216;-69
2021/12/23 14:07:37;;;;;;;5.63;5.13;;;22.60;41.90;;;;;;5077908;28;20227;-67
2021/12/23 14:10:18;;;;;;;5.88;5.32;;;22.60;41.80;;;;;;5095180;28;20230;-69